• Join FlightAware (Why Join?)
  • Login
  • US Flag 
09:08AM EDT


 

Airport Tracker/Info


-or-


 

Live Flight TrackerFlight Track Log ✈ TRS423 ✈ 22-May-2013 ✈ KMCO - KPHL

Flight Track Log - Related Links

Times and Time Zones

All times are in EDT time to prevent confusion due to time zone crossing. See the TRS423 flight status page for this flight to view local times or setup timezone preferences in your user account.

Time Position Orientation Groundspeed Altitude Reporting Facility
EDT Latitude Longitude Course Direction KTS MPH feet Rate Location/Type
02:47PM 28.4000 -81.3000 221° Southwest 181 208 700  Level Orlando TRACON
02:48PM 28.3500 -81.3500 221° Southwest 253 291 2,600 2,220 Climbing Orlando TRACON
02:49PM 28.3167 -81.4000 233° Southwest 251 289 5,400 3,000 Climbing Orlando TRACON
02:50PM 28.3000 -81.4833 257° West 265 305 8,700 2,880 Climbing Orlando TRACON
02:51PM 28.3333 -81.5500 300° West 283 326 11,200 2,040 Climbing Orlando TRACON
02:53PM 28.4428 -81.4786 30° Northeast 344 396 14,400 1,680 Climbing Jacksonville Center
02:54PM 28.4875 -81.3811 62° Northeast 328 377 15,900 1,560 Climbing Jacksonville Center
02:55PM 28.5489 -81.2856 54° Northeast 353 406 17,600 1,620 Climbing Jacksonville Center
02:56PM 28.6208 -81.1922 49° Northeast 370 426 19,200 1,620 Climbing Jacksonville Center
02:57PM 28.7181 -81.1336 28° Northeast 380 437 20,900 1,320 Climbing Jacksonville Center
02:58PM 28.8283 -81.1033 14° North 388 447 21,900 1,020 Climbing Jacksonville Center
02:59PM 28.9469 -81.0892 North 402 463 23,000 1,020 Climbing Jacksonville Center
03:00PM 29.0700 -81.0847 North 425 489 24,000 1,140 Climbing Jacksonville Center
03:01PM 29.1956 -81.1039 352° North 437 503 25,300 2,160 Climbing Jacksonville Center
03:02PM 29.3106 -81.1256 351° North 442 509 28,400 1,980 Climbing Jacksonville Center
03:03PM 29.4278 -81.1425 353° North 423 487 29,300 720 Climbing Jacksonville Center
03:04PM 29.5556 -81.1642 352° North 423 487 29,900 600 Climbing Jacksonville Center
03:05PM 29.6706 -81.1811 353° North 435 501 30,600 660 Climbing Jacksonville Center
03:06PM 29.7961 -81.2006 352° North 447 514 31,300 780 Climbing Jacksonville Center
03:07PM 29.9236 -81.2197 353° North 457 526 32,200 840 Climbing Jacksonville Center
03:08PM 30.0492 -81.2417 351° North 457 526 33,000 360 Climbing Jacksonville Center
03:09PM 30.1789 -81.2611 353° North 463 533 33,000  Level Jacksonville Center
03:11PM 30.4342 -81.3025 352° North 463 533 33,000  Level Jacksonville Center
03:12PM 30.5617 -81.3219 353° North 463 533 33,000  Level Jacksonville Center
03:13PM 30.6892 -81.3442 351° North 463 533 33,000  Level Jacksonville Center
03:14PM 30.8144 -81.3347 North 463 533 33,000  Level Jacksonville Center
03:15PM 30.9306 -81.2650 27° Northeast 448 516 33,000  Level Jacksonville Center
03:16PM 31.0422 -81.1953 28° Northeast 448 516 33,000  Level Jacksonville Center
03:17PM 31.1564 -81.1278 27° Northeast 453 521 33,000  Level Jacksonville Center
03:18PM 31.2722 -81.0550 28° Northeast 460 529 33,000  Level Jacksonville Center
03:19PM 31.3961 -80.9747 29° Northeast 460 529 33,000  Level Jacksonville Center
03:20PM 31.4997 -80.9117 27° Northeast 451 519 33,000  Level Jacksonville Center
03:21PM 31.6236 -80.8358 28° Northeast 451 519 33,000  Level Jacksonville Center
03:22PM 31.7250 -80.7750 27° Northeast 446 513 33,000  Level Jacksonville Center
03:23PM 31.8489 -80.6964 28° Northeast 446 513 33,000  Level Jacksonville Center
03:24PM 31.9625 -80.6275 27° Northeast 446 513 33,000  Level Jacksonville Center
03:25PM 32.0658 -80.5636 28° Northeast 446 513 33,000  Level Jacksonville Center
03:26PM 32.1772 -80.4922 28° Northeast 446 513 33,000  Level Jacksonville Center
03:27PM 32.2906 -80.4203 28° Northeast 452 520 33,000  Level Jacksonville Center
03:28PM 32.4061 -80.3483 28° Northeast 452 520 33,000  Level Jacksonville Center
03:29PM 32.5194 -80.2761 28° Northeast 452 520 33,000  Level Jacksonville Center
03:30PM 32.6219 -80.1844 37° Northeast 452 520 33,000  Level Jacksonville Center
03:31PM 32.7242 -80.0925 37° Northeast 458 527 33,000  Level Jacksonville Center
03:32PM 32.8267 -80.0003 37° Northeast 458 527 33,000  Level Jacksonville Center
03:33PM 32.9308 -79.9078 37° Northeast 463 533 33,000  Level Jacksonville Center
03:34PM 33.0453 -79.8025 38° Northeast 469 540 33,000  Level Jacksonville Center
03:35PM 33.1472 -79.7119 37° Northeast 469 540 33,000  Level Jacksonville Center
03:36PM 33.2533 -79.6164 37° Northeast 469 540 33,000  Level Jacksonville Center
03:37PM 33.3553 -79.5256 37° Northeast 469 540 33,000  Level Jacksonville Center
03:38PM 33.4592 -79.4297 38° Northeast 469 540 33,000  Level Jacksonville Center
03:40PM 33.5992 -79.2986 38° Northeast 465 535 33,000  Level Washington Center
03:41PM 33.7064 -79.2036 36° Northeast 465 535 33,000 -60 Level Washington Center
03:42PM 33.8072 -79.1106 37° Northeast 465 535 32,900  Descending Washington Center
03:43PM 33.9100 -79.0147 38° Northeast 465 535 33,000  Climbing Washington Center
03:44PM 34.0128 -78.9239 36° Northeast 465 535 33,000  Level Washington Center
03:45PM 34.1178 -78.8253 38° Northeast 465 535 33,000  Level Washington Center
03:46PM 34.2183 -78.7311 38° Northeast 465 535 33,000  Level Washington Center
03:47PM 34.3208 -78.6394 36° Northeast 465 535 33,000  Level Washington Center
03:48PM 34.4214 -78.5375 40° Northeast 465 535 33,000 -60 Level Washington Center
03:49PM 34.5200 -78.4353 40° Northeast 465 535 32,900  Descending Washington Center
03:50PM 34.6019 -78.3194 49° Northeast 459 528 33,000  Climbing Washington Center
03:51PM 34.6614 -78.1803 63° Northeast 453 521 33,000  Level Washington Center
03:52PM 34.7225 -78.0456 61° Northeast 453 521 33,000  Level Washington Center
03:53PM 34.7817 -77.9033 63° Northeast 453 521 33,000  Level Washington Center
03:54PM 34.8450 -77.7508 63° Northeast 453 521 33,000  Level Washington Center
03:55PM 34.9058 -77.6131 62° Northeast 453 521 33,000  Level Washington Center
03:56PM 34.9664 -77.4778 61° Northeast 453 521 33,000  Level Washington Center
03:57PM 35.0292 -77.3422 60° Northeast 448 516 33,000  Level Washington Center
03:58PM 35.0894 -77.2039 62° Northeast 448 516 33,000  Level Washington Center
03:59PM 35.1661 -77.0836 52° Northeast 453 521 33,000  Level Washington Center
04:00PM 35.2406 -76.9756 50° Northeast 453 521 33,000  Level Washington Center
04:01PM 35.3211 -76.8547 51° Northeast 458 527 33,000  Level Washington Center
04:02PM 35.4100 -76.7211 51° Northeast 458 527 33,000 -60 Level Washington Center
04:03PM 35.4906 -76.5947 52° Northeast 463 533 32,900 -60 Descending Washington Center
04:04PM 35.5769 -76.4706 49° Northeast 469 540 32,900  Level Washington Center
04:05PM 35.6922 -76.4053 25° Northeast 453 521 33,000  Climbing Washington Center
04:06PM 35.8178 -76.3606 16° North 444 511 33,000  Level Washington Center
04:07PM 35.9431 -76.3131 17° North 455 524 33,000 -60 Level Washington Center
04:08PM 36.0644 -76.2653 18° North 460 529 32,900 -600 Descending Washington Center
04:09PM 36.1856 -76.2175 18° North 460 529 31,900 -1,020 Descending Washington Center
04:10PM 36.3047 -76.1694 18° North 460 529 30,900 -1,020 Descending Washington Center
04:11PM 36.4281 -76.1211 17° North 455 524 30,000 -960 Descending Washington Center
04:12PM 36.5514 -76.0756 17° North 462 532 29,000 -600 Descending Washington Center
04:13PM 36.6706 -76.0244 19° North 462 532 28,900  Descending Washington Center
04:14PM 36.7958 -75.9758 17° North 462 532 29,000  Climbing Washington Center
04:15PM 36.9150 -75.9269 18° North 456 525 29,000  Level Washington Center
04:16PM 37.0278 -75.8858 16° North 461 531 29,000  Level Washington Center
04:17PM 37.1489 -75.8367 18° North 456 525 29,000  Level Washington Center
04:18PM 37.2678 -75.7903 17° North 451 519 29,000 -240 Level Washington Center
04:19PM 37.3867 -75.7408 18° North 451 519 28,600 -720 Descending Washington Center
04:20PM 37.5036 -75.6939 18° North 441 507 27,600 -1,020 Descending Washington Center
04:21PM 37.6206 -75.6494 17° North 441 507 26,600 -1,020 Descending Washington Center
04:22PM 37.7331 -75.5997 19° North 441 507 25,600 -840 Descending Washington Center
04:23PM 37.8500 -75.5522 18° North 435 501 25,000 -660 Descending Washington Center
04:24PM 37.9644 -75.5022 19° North 435 501 24,400 -840 Descending Washington Center
04:25PM 38.0750 -75.4572 18° North 430 495 23,400 -1,020 Descending Washington Center
04:26PM 38.1814 -75.3911 26° Northeast 425 489 22,400 -1,080 Descending Washington Center
04:27PM 38.2875 -75.3272 25° Northeast 420 483 21,400 -1,140 Descending Washington Center
04:28PM 38.4000 -75.2447 30° Northeast 420 483 20,200 -1,440 Descending Washington Center
04:29PM 38.5061 -75.1778 26° Northeast 415 478 18,500 -2,040 Descending Washington Center
04:30PM 38.6078 -75.1133 26° Northeast 415 478 16,100 -1,740 Descending Washington Center
04:31PM 38.7036 -75.0517 27° Northeast 395 455 15,000 -600 Descending Washington Center
04:32PM 38.8011 -74.9897 26° Northeast 390 449 15,000 -420 Level Washington Center
04:33PM 38.9031 -74.9514 16° North 384 442 14,200 -900 Descending Washington Center
04:34PM 39.0094 -74.9558 358° North 373 429 13,200 -1,020 Descending Washington Center
04:35PM 39.1117 -74.9575 359° North 367 422 12,200 -960 Descending Washington Center
04:36PM 39.2033 -74.9594 359° North 349 402 11,300 -840 Descending Washington Center
04:37PM 39.2889 -74.9614 359° North 321 369 10,600 -960 Descending Washington Center
04:38PM 39.4333 -74.9667 358° North 296 341 8,600 -1,140 Descending Philadelphia TRACON
04:39PM 39.5167 -75.0000 343° North 294 338 7,500 -1,080 Descending Philadelphia TRACON
04:40PM 39.6000 -75.0167 351° North 292 336 6,600 -720 Descending Philadelphia TRACON
04:41PM 39.6833 -75.0500 343° North 290 334 6,100 -300 Descending Philadelphia TRACON
04:42PM 39.7500 -75.0667 349° North 287 330 6,100 -300 Level Philadelphia TRACON
04:43PM 39.8167 -75.0500 11° North 226 260 5,500 -900 Descending Philadelphia TRACON
04:44PM 39.8333 -74.9667 75° East 228 262 4,200 -780 Descending Philadelphia TRACON
04:45PM 39.8500 -74.9167 67° East 203 234 4,100 -60 Descending Philadelphia TRACON
04:46PM 39.9000 -74.9167 360° North 189 217 4,100 -360 Level Philadelphia TRACON
04:47PM 39.9333 -74.9667 311° West 169 194 3,400 -540 Descending Philadelphia TRACON
04:48PM 39.9167 -75.0167 247° West 164 189 3,100 -600 Descending Philadelphia TRACON
04:49PM 39.9000 -75.0833 252° West 166 191 2,200 -900 Descending Philadelphia TRACON
04:50PM 39.9000 -75.1333 270° West 162 186 1,500 -780 Descending Philadelphia TRACON
04:51PM 39.8833 -75.1833 247° West 134 154 600 -780 Descending Philadelphia TRACON
04:53PM 39.8667 -75.2333 279° West  Level FlightAware Approximate
05:00PM 39.8722 -75.2409 279° West  Level Estimated